Terminal Aerodrome Forecast
Issued by NWS

Home | Current Version | Previous Version | Text Only | Print | Product List | Glossary On
Versions: 1 2 3 4 5 6 7 8 9 10 11 12 13 14 15
000
FTUS45 KFGZ 271200 AAA
TAFPRC
TAF AMD
KPRC 271209Z 2712/2812 13008KT 6SM BR BKN010 OVC050
      TEMPO 2712/2716 4SM -SHRA SCT010 BKN020
     FM271600 13008KT P6SM SCT020 BKN040
     FM280100 VRB04KT P6SM FEW040 SCT250=

USA.gov is the U.S. government's official web portal to all federal, state and local government web resources and services.